Time;durP1;ratioP1;P1;durP2;ratioP2;P2;SDS_P1;SDS_P2;PMS_P1;PMS_P2;Temp;Humidity;BMP_temperature;BMP_pressure;BME280_temperature;BME280_humidity;BME280_pressure;Samples;Min_cycle;Max_cycle;Signal;HPM_P1;HPM_P2
2023/07/14 00:00:21;;;;;;;12.30;6.70;;;;;;;25.48;63.17;99426.64;105651;1252;60512;-67
2023/07/14 00:02:49;;;;;;;11.00;6.60;;;;;;;25.46;63.31;99423.02;105747;1254;63982;-67
2023/07/14 00:05:21;;;;;;;9.20;6.40;;;;;;;25.45;63.37;99416.38;105703;1252;60471;-66
2023/07/14 00:07:49;;;;;;;11.30;6.50;;;;;;;25.44;63.49;99403.66;105753;1253;64073;-67
2023/07/14 00:10:31;;;;;;;9.60;6.70;;;;;;;25.45;63.54;99391.46;105704;1253;60544;-67
2023/07/14 00:13:02;;;;;;;11.70;6.70;;;;;;;25.44;63.65;99386.70;105773;1252;60777;-66
2023/07/14 00:15:30;;;;;;;9.80;6.60;;;;;;;25.44;63.65;99389.56;105659;1251;65111;-68
2023/07/14 00:18:16;;;;;;;14.80;6.70;;;;;;;25.44;63.72;99390.42;105792;1258;60510;-67
2023/07/14 00:20:43;;;;;;;14.10;6.80;;;;;;;25.43;63.84;99389.81;105780;1253;63932;-66
2023/07/14 00:23:13;;;;;;;11.50;6.30;;;;;;;25.42;63.86;99392.23;105541;1253;61062;-66
2023/07/14 00:25:41;;;;;;;11.30;6.70;;;;;;;25.42;63.98;99390.88;105546;1258;60392;-67
2023/07/14 00:28:17;;;;;;;12.80;6.80;;;;;;;25.44;64.05;99384.05;105881;1254;65337;-66
2023/07/14 00:30:45;;;;;;;12.70;7.00;;;;;;;25.46;64.08;99383.91;105700;1254;60548;-68
2023/07/14 00:33:19;;;;;;;11.70;6.70;;;;;;;25.45;64.01;99377.36;105608;1252;62771;-69
2023/07/14 00:35:49;;;;;;;11.40;6.50;;;;;;;25.44;64.06;99368.52;105788;1254;60420;-67
2023/07/14 00:38:17;;;;;;;10.30;6.70;;;;;;;25.44;64.14;99370.95;105855;1253;60537;-67
2023/07/14 00:40:47;;;;;;;11.10;6.60;;;;;;;25.42;64.21;99375.95;105814;1252;65073;-67
2023/07/14 00:43:24;;;;;;;9.80;6.50;;;;;;;25.40;64.28;99390.80;105682;1260;60882;-67
2023/07/14 00:45:53;;;;;;;12.10;6.70;;;;;;;25.38;64.47;99405.47;105603;1254;62650;-68
2023/07/14 00:48:21;;;;;;;9.90;6.90;;;;;;;25.35;64.58;99416.92;105604;1258;60386;-67
2023/07/14 00:51:01;;;;;;;14.00;7.20;;;;;;;25.30;64.63;99420.01;105454;1251;60398;-67
2023/07/14 00:53:32;;;;;;;16.40;7.50;;;;;;;25.23;64.73;99425.23;105854;1258;65607;-67
2023/07/14 00:56:14;;;;;;;12.50;7.50;;;;;;;25.21;64.82;99427.73;105455;1253;60534;-67
2023/07/14 00:58:45;;;;;;;13.30;7.70;;;;;;;25.21;65.03;99425.45;105815;1253;64106;-71
2023/07/14 01:01:21;;;;;;;12.50;8.00;;;;;;;25.20;65.21;99426.96;105737;1254;60534;-69
2023/07/14 01:03:51;;;;;;;12.30;7.60;;;;;;;25.19;65.30;99429.52;105680;1251;60467;-68
2023/07/14 01:06:26;;;;;;;12.00;7.40;;;;;;;25.16;65.38;99430.05;105616;1260;64066;-67
2023/07/14 01:08:58;;;;;;;9.20;6.60;;;;;;;25.14;65.24;99421.63;105880;1253;60331;-66
2023/07/14 01:11:32;;;;;;;8.80;7.00;;;;;;;25.11;65.21;99416.67;105689;1257;62845;-68
2023/07/14 01:13:59;;;;;;;;;;;;;;;25.08;65.11;99414.55;105691;1257;60641;-68
2023/07/14 01:16:27;;;;;;;11.00;6.60;;;;;;;25.06;64.95;99416.62;105684;1253;60469;-67
2023/07/14 01:18:54;;;;;;;10.60;6.10;;;;;;;25.04;64.85;99415.81;105774;1254;65124;-67
2023/07/14 01:21:21;;;;;;;9.40;6.60;;;;;;;25.02;64.76;99417.56;105796;1252;60934;-68
2023/07/14 01:24:07;;;;;;;8.40;6.60;;;;;;;25.02;64.73;99421.13;105691;1253;63799;-68
2023/07/14 01:27:02;;;;;;;9.80;6.50;;;;;;;25.03;64.84;99425.69;105758;1258;60418;-68
2023/07/14 01:29:29;;;;;;;10.60;7.10;;;;;;;25.02;64.93;99435.50;105764;1256;60531;-69
2023/07/14 01:31:57;;;;;;;9.10;7.30;;;;;;;25.01;65.02;99441.53;105810;1256;64989;-68
2023/07/14 01:34:25;;;;;;;8.90;7.20;;;;;;;25.02;65.03;99440.99;106003;1253;61071;-68
2023/07/14 01:36:58;;;;;;;8.90;7.50;;;;;;;25.01;65.13;99438.66;105685;1259;63734;-70
2023/07/14 01:39:26;;;;;;;10.00;7.80;;;;;;;25.02;65.25;99431.73;105375;1253;60617;-66
2023/07/14 01:41:54;;;;;;;9.40;7.80;;;;;;;25.04;65.38;99438.52;105682;1251;60508;-67
2023/07/14 01:44:21;;;;;;;9.90;7.50;;;;;;;25.03;65.34;99439.31;105884;1251;65181;-67
2023/07/14 01:46:48;;;;;;;9.20;6.50;;;;;;;25.02;65.46;99434.20;105605;1256;60495;-68
2023/07/14 01:49:27;;;;;;;6.50;5.70;;;;;;;25.01;65.45;99435.90;105716;1251;64190;-69
2023/07/14 01:51:59;;;;;;;6.10;4.30;;;;;;;24.98;65.43;99435.27;105432;1254;60435;-73
2023/07/14 01:54:39;;;;;;;5.50;3.60;;;;;;;24.95;65.46;99429.42;105249;1253;60466;-70
2023/07/14 01:57:11;;;;;;;3.50;2.80;;;;;;;24.92;65.36;99430.35;105670;1259;64894;-67
2023/07/14 01:59:43;;;;;;;4.20;2.70;;;;;;;24.90;65.28;99426.16;105695;1251;60647;-70
2023/07/14 02:02:14;;;;;;;4.10;2.30;;;;;;;24.89;65.25;99419.14;105773;1253;63821;-69
2023/07/14 02:04:41;;;;;;;2.60;2.20;;;;;;;24.87;65.20;99410.08;105774;1251;60524;-69
2023/07/14 02:07:11;;;;;;;2.50;1.80;;;;;;;24.85;65.17;99405.34;105924;1251;60389;-68
2023/07/14 02:09:38;;;;;;;2.00;1.80;;;;;;;24.82;65.09;99409.56;105508;1260;65044;-67
2023/07/14 02:12:06;;;;;;;2.30;1.50;;;;;;;24.79;65.09;99409.16;105925;1253;60549;-68
2023/07/14 02:14:40;;;;;;;2.50;1.40;;;;;;;24.77;65.06;99407.34;105436;1253;64019;-67
2023/07/14 02:17:16;;;;;;;2.20;1.40;;;;;;;24.75;64.99;99403.84;105714;1251;60348;-68
2023/07/14 02:19:43;;;;;;;3.30;1.40;;;;;;;24.74;64.87;99398.37;105430;1254;60437;-67
2023/07/14 02:22:10;;;;;;;2.20;1.50;;;;;;;24.73;64.94;99396.62;105550;1259;65468;-70
2023/07/14 02:24:37;;;;;;;1.80;1.40;;;;;;;24.72;64.94;99396.44;105913;1255;60510;-68
2023/07/14 02:27:04;;;;;;;1.80;1.40;;;;;;;24.70;64.98;99395.46;105829;1256;63994;-67
2023/07/14 02:29:30;;;;;;;2.10;1.40;;;;;;;24.70;65.06;99398.03;105691;1258;60527;-68
2023/07/14 02:32:21;;;;;;;1.80;1.70;;;;;;;24.69;65.16;99399.16;105762;1256;60284;-68
2023/07/14 02:35:36;;;;;;;2.20;1.40;;;;;;;24.68;65.15;99396.45;105654;1253;65108;-69
2023/07/14 02:38:10;;;;;;;2.10;1.30;;;;;;;24.65;65.09;99393.31;105306;1262;60513;-69
2023/07/14 02:40:39;;;;;;;1.80;1.20;;;;;;;24.63;65.08;99393.38;105801;1256;64016;-67
2023/07/14 02:43:11;;;;;;;1.50;1.10;;;;;;;24.62;65.06;99397.89;105555;1254;60540;-69
2023/07/14 02:45:42;;;;;;;1.30;1.10;;;;;;;24.60;64.96;99397.83;105388;1252;60533;-67
2023/07/14 02:48:12;;;;;;;3.10;1.30;;;;;;;24.58;64.94;99398.77;105618;1259;67139;-70
2023/07/14 02:50:39;;;;;;;2.00;0.90;;;;;;;24.57;64.84;99407.60;105524;1259;60687;-70
2023/07/14 02:53:06;;;;;;;5.00;1.10;;;;;;;24.56;64.76;99405.42;105873;1256;64096;-69
2023/07/14 02:55:33;;;;;;;1.80;1.10;;;;;;;24.55;64.81;99402.65;105595;1256;60493;-70
2023/07/14 02:58:00;;;;;;;1.20;1.10;;;;;;;24.54;64.84;99405.01;105752;1256;60535;-69
2023/07/14 03:00:27;;;;;;;1.20;1.00;;;;;;;24.52;64.84;99408.59;105782;1253;65339;-69
2023/07/14 03:02:55;;;;;;;1.00;0.90;;;;;;;24.52;64.83;99404.91;105612;1256;60526;-66
2023/07/14 03:05:22;;;;;;;2.50;0.90;;;;;;;24.51;64.98;99401.27;105805;1256;63815;-69
2023/07/14 03:07:49;;;;;;;1.40;1.00;;;;;;;24.53;64.94;99400.78;105789;1256;60506;-67
2023/07/14 03:10:16;;;;;;;1.10;0.90;;;;;;;24.53;64.94;99404.02;105793;1255;60464;-67
2023/07/14 03:12:43;;;;;;;1.80;1.00;;;;;;;24.54;65.05;99403.02;105624;1261;65185;-66
2023/07/14 03:15:14;;;;;;;1.70;1.20;;;;;;;24.55;65.15;99401.48;105773;1258;60489;-69
2023/07/14 03:17:42;;;;;;;2.60;1.00;;;;;;;24.56;65.17;99402.25;105718;1256;63950;-67
2023/07/14 03:20:11;;;;;;;1.40;1.00;;;;;;;24.59;65.10;99408.23;105499;1257;60860;-66
2023/07/14 03:22:38;;;;;;;2.50;1.20;;;;;;;24.60;65.13;99414.09;105726;1258;60407;-68
2023/07/14 03:25:09;;;;;;;1.60;1.10;;;;;;;24.59;65.12;99408.29;105487;1251;64697;-67
2023/07/14 03:27:38;;;;;;;1.90;0.90;;;;;;;24.60;65.12;99395.61;105618;1251;60418;-68
2023/07/14 03:30:05;;;;;;;1.70;1.10;;;;;;;24.62;65.14;99396.05;105756;1257;64110;-69
2023/07/14 03:32:33;;;;;;;1.50;1.10;;;;;;;24.63;64.99;99402.99;106028;1257;60447;-67
2023/07/14 03:35:00;;;;;;;1.40;1.00;;;;;;;24.64;64.93;99409.11;105900;1256;60526;-67
2023/07/14 03:37:27;;;;;;;2.90;0.80;;;;;;;24.65;64.95;99416.31;105393;1261;65196;-70
2023/07/14 03:39:54;;;;;;;1.40;1.00;;;;;;;24.66;64.89;99417.73;105838;1256;60591;-68
2023/07/14 03:42:21;;;;;;;1.70;1.00;;;;;;;24.67;64.77;99426.56;105778;1256;62886;-67
2023/07/14 03:44:48;;;;;;;3.40;1.10;;;;;;;24.68;64.73;99427.48;105974;1255;60429;-69
2023/07/14 03:47:15;;;;;;;1.90;1.00;;;;;;;24.72;64.78;99426.19;105847;1253;60512;-69
2023/07/14 03:49:42;;;;;;;2.10;0.90;;;;;;;24.74;64.83;99427.70;105778;1259;65121;-68
2023/07/14 03:52:09;;;;;;;1.10;1.00;;;;;;;24.79;64.78;99429.35;105789;1253;60504;-67
2023/07/14 03:54:36;;;;;;;1.80;0.90;;;;;;;24.82;64.89;99435.00;106056;1256;63900;-67
2023/07/14 03:57:05;;;;;;;1.80;1.00;;;;;;;24.85;64.81;99436.02;105572;1258;60527;-65
2023/07/14 03:59:32;;;;;;;1.10;0.90;;;;;;;24.87;64.88;99439.14;105566;1256;60997;-66
2023/07/14 04:02:00;;;;;;;1.60;1.00;;;;;;;24.88;64.74;99441.77;105627;1259;65178;-66
2023/07/14 04:04:28;;;;;;;1.60;0.90;;;;;;;24.91;64.68;99443.34;105694;1257;60532;-67
2023/07/14 04:06:55;;;;;;;1.40;1.00;;;;;;;24.95;64.61;99445.70;105681;1258;63968;-67
2023/07/14 04:09:22;;;;;;;1.10;1.00;;;;;;;25.01;64.51;99440.44;105645;1257;60459;-69
2023/07/14 04:11:50;;;;;;;1.70;0.90;;;;;;;25.10;64.56;99441.08;105771;1252;60335;-66
2023/07/14 04:14:17;;;;;;;2.20;1.00;;;;;;;25.19;64.65;99441.40;105750;1257;65094;-67
2023/07/14 04:16:45;;;;;;;1.40;1.00;;;;;;;25.27;64.42;99437.30;105726;1254;60642;-67
2023/07/14 04:19:12;;;;;;;1.10;1.00;;;;;;;25.34;64.37;99434.30;105817;1251;65842;-67
2023/07/14 04:21:39;;;;;;;1.30;1.00;;;;;;;25.39;64.09;99437.42;105656;1256;60527;-66
2023/07/14 04:24:06;;;;;;;1.30;1.00;;;;;;;25.47;63.47;99437.76;105809;1254;60417;-67
2023/07/14 04:26:35;;;;;;;1.50;1.10;;;;;;;25.55;63.00;99434.58;105617;1261;65117;-67
2023/07/14 04:29:04;;;;;;;1.40;0.90;;;;;;;25.58;62.68;99432.93;105680;1256;60555;-67
2023/07/14 04:31:33;;;;;;;1.80;1.10;;;;;;;25.60;62.56;99439.99;105914;1259;63837;-66
2023/07/14 04:34:00;;;;;;;1.20;1.10;;;;;;;25.63;62.55;99448.37;105785;1256;60348;-67
2023/07/14 04:36:28;;;;;;;1.80;1.20;;;;;;;25.65;62.47;99452.29;105726;1256;60626;-68
2023/07/14 04:39:10;;;;;;;2.30;1.30;;;;;;;25.66;62.60;99458.42;105682;1262;66564;-67
2023/07/14 04:41:37;;;;;;;2.70;1.20;;;;;;;25.65;62.72;99461.43;105587;1256;60457;-67
2023/07/14 04:44:14;;;;;;;2.90;1.30;;;;;;;25.64;62.72;99462.77;105716;1258;64030;-67
2023/07/14 04:46:42;;;;;;;3.80;1.40;;;;;;;25.64;62.72;99469.86;105515;1257;60546;-67
2023/07/14 04:49:10;;;;;;;2.20;1.50;;;;;;;25.64;62.69;99468.33;105732;1256;60523;-69
2023/07/14 04:51:37;;;;;;;2.90;1.40;;;;;;;25.62;62.66;99472.58;105466;1252;63761;-67
2023/07/14 04:54:05;;;;;;;2.70;1.60;;;;;;;25.60;62.68;99475.48;105593;1257;60544;-66
2023/07/14 04:56:33;;;;;;;2.30;1.70;;;;;;;25.59;62.69;99477.14;105898;1257;63801;-72
2023/07/14 04:59:00;;;;;;;2.90;1.90;;;;;;;25.55;62.65;99481.79;105583;1251;60590;-66
2023/07/14 05:01:28;;;;;;;3.60;1.70;;;;;;;25.51;62.59;99485.19;105982;1251;60399;-67
2023/07/14 05:03:55;;;;;;;2.90;1.80;;;;;;;25.47;62.78;99485.70;105638;1257;65267;-68
2023/07/14 05:06:22;;;;;;;2.90;1.90;;;;;;;25.50;62.58;99485.49;105697;1254;60448;-67
2023/07/14 05:08:49;;;;;;;2.20;1.90;;;;;;;25.46;62.52;99486.38;105865;1257;63932;-67
2023/07/14 05:11:17;;;;;;;4.20;2.20;;;;;;;25.38;62.58;99482.44;105651;1251;60833;-66
2023/07/14 05:13:45;;;;;;;6.20;2.20;;;;;;;25.35;62.80;99477.40;105879;1256;60457;-71
2023/07/14 05:16:12;;;;;;;3.30;2.20;;;;;;;25.34;62.86;99478.16;105724;1257;64073;-69
2023/07/14 05:18:40;;;;;;;4.10;2.40;;;;;;;25.32;62.84;99472.23;106099;1254;60445;-67
2023/07/14 05:21:08;;;;;;;2.80;2.50;;;;;;;25.32;62.92;99472.65;105883;1256;64051;-66
2023/07/14 05:23:35;;;;;;;2.80;2.40;;;;;;;25.33;63.01;99468.40;105708;1257;60401;-68
2023/07/14 05:26:02;;;;;;;3.50;2.60;;;;;;;25.36;63.09;99466.02;105879;1257;60526;-67
2023/07/14 05:28:29;;;;;;;5.10;2.90;;;;;;;25.42;63.18;99459.16;105663;1251;65254;-66
2023/07/14 05:30:58;;;;;;;3.70;2.40;;;;;;;25.53;63.23;99458.34;105466;1254;60460;-67
2023/07/14 05:33:26;;;;;;;3.70;3.00;;;;;;;25.65;63.13;99456.15;105994;1251;63729;-68
2023/07/14 05:35:53;;;;;;;3.40;2.60;;;;;;;25.77;63.03;99457.58;105716;1254;60446;-68
2023/07/14 05:38:20;;;;;;;5.90;3.10;;;;;;;25.88;62.77;99454.30;105811;1256;60415;-71
2023/07/14 05:40:52;;;;;;;4.00;3.10;;;;;;;25.94;62.28;99446.94;105911;1254;65186;-69
2023/07/14 05:43:26;;;;;;;5.60;3.10;;;;;;;26.03;61.96;99441.95;105594;1256;60417;-67
2023/07/14 05:45:53;;;;;;;4.00;3.10;;;;;;;26.12;61.67;99440.80;105669;1257;63964;-67
2023/07/14 05:48:21;;;;;;;4.30;3.40;;;;;;;26.14;61.31;99447.82;106074;1251;60879;-66
2023/07/14 05:50:48;;;;;;;6.40;3.30;;;;;;;26.16;61.14;99449.54;105715;1260;60416;-68
2023/07/14 05:53:16;;;;;;;5.50;3.10;;;;;;;26.22;61.02;99457.10;105950;1257;65055;-67
2023/07/14 05:55:43;;;;;;;4.80;3.30;;;;;;;26.27;60.98;99470.19;105587;1252;60441;-67
2023/07/14 05:58:10;;;;;;;3.70;3.30;;;;;;;26.30;60.88;99480.52;105906;1251;63844;-67
2023/07/14 06:00:38;;;;;;;3.90;3.40;;;;;;;26.21;60.52;99488.22;105497;1254;60565;-66
2023/07/14 06:03:10;;;;;;;6.40;3.20;;;;;;;26.18;60.38;99497.20;105375;1253;60504;-68
2023/07/14 06:05:40;;;;;;;4.80;3.80;;;;;;;26.21;59.98;99506.45;105683;1256;65264;-68
2023/07/14 06:08:07;;;;;;;3.40;3.10;;;;;;;26.13;59.69;99514.77;105847;1261;60415;-68
2023/07/14 06:10:34;;;;;;;5.20;3.50;;;;;;;26.09;59.80;99520.05;105636;1260;62759;-67
2023/07/14 06:13:04;;;;;;;5.60;3.90;;;;;;;25.99;59.89;99518.73;105690;1256;60419;-67
2023/07/14 06:15:31;;;;;;;4.00;3.60;;;;;;;25.86;60.06;99519.42;105659;1251;60440;-68
2023/07/14 06:17:58;;;;;;;5.70;3.70;;;;;;;25.78;60.21;99522.56;106025;1256;65075;-68
2023/07/14 06:20:25;;;;;;;5.50;3.80;;;;;;;25.75;60.36;99531.70;105796;1260;60508;-67
2023/07/14 06:22:56;;;;;;;4.40;3.80;;;;;;;25.71;60.57;99539.41;105400;1254;62575;-67
2023/07/14 06:25:23;;;;;;;5.60;4.00;;;;;;;25.65;60.72;99546.52;105671;1257;60482;-68
2023/07/14 06:27:50;;;;;;;5.50;3.80;;;;;;;25.54;60.77;99548.41;105876;1251;60456;-69
2023/07/14 06:30:17;;;;;;;4.20;3.80;;;;;;;25.47;60.94;99544.91;105847;1251;65258;-69
2023/07/14 06:32:44;;;;;;;7.90;4.30;;;;;;;25.48;61.16;99544.89;105757;1251;60434;-65
2023/07/14 06:35:11;;;;;;;4.60;4.20;;;;;;;25.51;61.15;99542.95;105823;1251;64135;-67
2023/07/14 06:37:39;;;;;;;4.50;4.10;;;;;;;25.56;61.20;99540.89;105700;1257;60492;-68
2023/07/14 06:40:08;;;;;;;4.70;4.30;;;;;;;25.62;61.04;99539.55;105846;1256;60309;-66
2023/07/14 06:42:37;;;;;;;6.90;4.10;;;;;;;25.68;60.67;99530.38;105674;1251;65062;-66
2023/07/14 06:45:05;;;;;;;8.80;4.80;;;;;;;25.65;60.62;99519.85;105579;1251;60549;-66
2023/07/14 06:47:32;;;;;;;4.90;4.10;;;;;;;25.65;60.67;99506.70;105731;1257;62624;-71
2023/07/14 06:49:59;;;;;;;5.50;4.70;;;;;;;25.69;60.47;99512.71;105861;1251;60506;-67
2023/07/14 06:52:27;;;;;;;4.80;4.40;;;;;;;25.67;60.44;99513.68;105735;1257;60537;-68
2023/07/14 06:54:54;;;;;;;4.70;4.10;;;;;;;25.69;60.56;99520.11;105775;1255;64992;-68
2023/07/14 06:57:21;;;;;;;4.70;4.10;;;;;;;25.71;60.25;99524.71;105731;1251;60498;-70
2023/07/14 06:59:48;;;;;;;4.90;4.40;;;;;;;25.79;60.26;99529.78;105509;1257;63993;-68
2023/07/14 07:02:15;;;;;;;5.20;4.70;;;;;;;25.89;60.22;99529.10;105554;1254;60345;-64
2023/07/14 07:04:43;;;;;;;5.10;4.70;;;;;;;26.03;60.11;99529.95;105701;1251;60444;-64
2023/07/14 07:07:10;;;;;;;7.30;4.80;;;;;;;26.18;59.52;99529.40;105631;1260;65041;-63
2023/07/14 07:09:38;;;;;;;6.30;4.90;;;;;;;26.31;59.05;99526.70;105885;1251;60537;-65
2023/07/14 07:12:08;;;;;;;7.00;4.70;;;;;;;26.42;58.84;99530.88;106004;1255;63852;-63
2023/07/14 07:14:36;;;;;;;8.40;4.70;;;;;;;26.54;58.76;99543.59;105612;1256;60439;-63
2023/07/14 07:17:04;;;;;;;4.70;4.20;;;;;;;26.66;58.24;99549.30;105627;1251;60442;-63
2023/07/14 07:19:33;;;;;;;4.90;4.40;;;;;;;26.74;57.89;99550.13;105716;1254;65240;-62
2023/07/14 07:22:00;;;;;;;5.30;4.00;;;;;;;26.81;57.52;99549.80;105687;1257;60486;-65
2023/07/14 07:24:28;;;;;;;4.10;3.70;;;;;;;26.86;57.26;99549.88;105566;1257;63811;-66
2023/07/14 07:26:55;;;;;;;5.40;3.90;;;;;;;26.85;56.73;99551.82;105778;1256;60464;-64
2023/07/14 07:29:22;;;;;;;6.10;3.50;;;;;;;26.79;55.82;99546.52;105376;1251;60440;-65
2023/07/14 07:31:50;;;;;;;4.40;3.40;;;;;;;26.77;56.07;99542.27;105511;1257;65045;-64
2023/07/14 07:34:19;;;;;;;4.10;3.70;;;;;;;26.84;55.89;99536.09;105482;1264;60441;-63
2023/07/14 07:36:46;;;;;;;4.70;3.60;;;;;;;26.98;55.86;99535.80;105783;1256;64034;-66
2023/07/14 07:39:12;;;;;;;3.90;3.60;;;;;;;27.14;55.86;99539.20;105709;1265;60516;-64
2023/07/14 07:41:40;;;;;;;5.10;3.50;;;;;;;27.30;55.18;99535.83;105707;1251;60467;-63
2023/07/14 07:44:10;;;;;;;3.90;3.10;;;;;;;27.47;54.51;99540.82;105604;1254;64025;-65
2023/07/14 07:46:38;;;;;;;5.20;3.00;;;;;;;27.58;54.13;99546.76;105668;1251;60530;-66
2023/07/14 07:49:05;;;;;;;14.80;3.30;;;;;;;27.71;53.98;99548.02;107906;1254;64080;-64
2023/07/14 07:51:33;;;;;;;6.40;2.80;;;;;;;27.89;53.54;99554.80;105673;1251;60387;-65
2023/07/14 07:54:00;;;;;;;13.80;3.00;;;;;;;28.04;52.69;99563.52;105457;1259;60716;-67
2023/07/14 07:56:29;;;;;;;4.80;2.70;;;;;;;28.09;52.38;99568.84;105751;1256;64880;-65
2023/07/14 07:58:56;;;;;;;6.90;3.00;;;;;;;28.09;52.63;99577.70;105642;1251;60562;-64
2023/07/14 08:01:24;;;;;;;20.80;3.90;;;;;;;28.08;52.66;99584.45;105670;1251;63940;-66
2023/07/14 08:03:52;;;;;;;8.30;3.70;;;;;;;28.04;52.98;99588.29;105626;1251;60507;-66
2023/07/14 08:06:21;;;;;;;8.50;3.30;;;;;;;27.98;53.17;99583.66;105884;1251;60530;-69
2023/07/14 08:08:51;;;;;;;6.50;3.10;;;;;;;27.94;52.81;99575.86;105733;1256;65638;-65
2023/07/14 08:11:18;;;;;;;3.60;3.20;;;;;;;27.94;51.99;99581.29;106033;1251;60542;-68
2023/07/14 08:13:45;;;;;;;5.20;2.90;;;;;;;27.90;51.63;99584.02;105617;1258;71519;-63
2023/07/14 08:16:12;;;;;;;12.80;3.50;;;;;;;27.87;51.48;99580.02;105560;1251;60905;-64
2023/07/14 08:18:39;;;;;;;7.60;3.40;;;;;;;27.84;51.67;99576.94;105901;1251;60527;-66
2023/07/14 08:21:06;;;;;;;3.80;3.20;;;;;;;27.83;51.75;99583.06;105771;1256;65199;-63
2023/07/14 08:23:36;;;;;;;5.10;3.50;;;;;;;27.80;51.96;99584.12;105810;1256;60530;-64
2023/07/14 08:26:04;;;;;;;5.60;3.80;;;;;;;27.78;52.30;99583.98;105740;1251;62885;-64
2023/07/14 08:28:31;;;;;;;4.80;3.90;;;;;;;27.79;52.66;99584.31;105516;1253;60389;-62
2023/07/14 08:31:00;;;;;;;4.90;4.00;;;;;;;27.79;52.77;99583.56;105833;1257;60447;-64
2023/07/14 08:33:27;;;;;;;5.40;4.80;;;;;;;27.73;52.83;99586.08;105597;1256;63762;-63
2023/07/14 08:35:55;;;;;;;7.80;5.10;;;;;;;27.63;53.30;99593.05;105654;1257;60530;-68
2023/07/14 08:38:22;;;;;;;8.90;5.50;;;;;;;27.55;53.59;99598.80;105704;1257;64136;-68
2023/07/14 08:40:59;;;;;;;7.70;5.50;;;;;;;27.48;53.76;99601.47;106008;1251;60428;-65
2023/07/14 08:43:45;;;;;;;8.20;6.50;;;;;;;27.39;54.06;99599.23;105703;1251;60486;-67
2023/07/14 08:46:51;;;;;;;9.40;7.40;;;;;;;27.26;54.30;99602.30;105675;1260;65196;-67
2023/07/14 08:49:23;;;;;;;8.90;8.00;;;;;;;27.06;54.82;99605.70;105727;1251;60559;-67
2023/07/14 08:52:02;;;;;;;8.90;8.00;;;;;;;27.01;55.17;99607.76;107017;1251;64792;-68
2023/07/14 08:55:03;;;;;;;9.60;8.70;;;;;;;27.00;55.58;99613.49;105670;1251;60575;-66
2023/07/14 08:57:30;;;;;;;11.60;10.40;;;;;;;26.97;55.76;99614.00;105689;1256;60315;-66
2023/07/14 08:59:59;;;;;;;12.30;11.20;;;;;;;26.93;55.92;99612.90;105748;1257;65039;-67
2023/07/14 09:02:41;;;;;;;13.00;11.40;;;;;;;26.87;56.13;99613.35;105627;1257;252195;-70
2023/07/14 09:05:17;;;;;;;13.10;11.80;;;;;;;26.75;56.26;99617.51;105911;1251;63988;-68
2023/07/14 09:07:45;;;;;;;12.90;11.70;;;;;;;26.65;56.72;99617.77;105494;1253;60497;-70
2023/07/14 09:10:12;;;;;;;12.00;10.90;;;;;;;26.59;57.01;99622.81;105768;1251;60531;-66
2023/07/14 09:12:54;;;;;;;11.50;10.50;;;;;;;26.59;57.17;99624.86;105751;1251;65295;-67
2023/07/14 09:15:25;;;;;;;8.90;8.00;;;;;;;26.56;57.31;99626.60;105695;1254;60450;-69
2023/07/14 09:18:39;;;;;;;8.30;7.50;;;;;;;26.45;57.37;99631.61;105624;1260;63923;-69
2023/07/14 09:21:27;;;;;;;5.70;5.20;;;;;;;26.33;58.05;99635.54;105771;1253;60426;-72
2023/07/14 09:24:15;;;;;;;6.30;5.60;;;;;;;26.16;58.91;99639.97;105692;1258;60416;-68
2023/07/14 09:26:48;;;;;;;8.30;5.40;;;;;;;25.97;59.82;99643.06;105839;1258;65112;-68
2023/07/14 09:29:20;;;;;;;5.40;4.60;;;;;;;25.82;60.54;99643.67;105743;1253;60511;-68
2023/07/14 09:32:03;;;;;;;6.00;5.20;;;;;;;25.69;61.17;99644.19;105822;1257;64147;-69
2023/07/14 09:34:40;;;;;;;8.30;5.60;;;;;;;25.61;61.70;99644.56;105752;1251;60411;-68
2023/07/14 09:37:15;;;;;;;7.70;6.90;;;;;;;25.56;62.11;99653.92;105582;1256;60485;-67
2023/07/14 09:39:43;;;;;;;8.80;6.90;;;;;;;25.53;62.49;99654.82;105610;1260;65092;-67
2023/07/14 09:42:21;;;;;;;8.30;7.50;;;;;;;25.52;62.94;99657.34;105715;1251;60457;-67
2023/07/14 09:44:48;;;;;;;8.70;7.90;;;;;;;25.53;63.07;99662.02;105664;1251;63884;-68
2023/07/14 09:47:14;;;;;;;8.30;7.60;;;;;;;25.52;63.16;99662.75;105795;1254;60562;-67
2023/07/14 09:49:45;;;;;;;8.70;7.80;;;;;;;25.53;63.31;99668.45;105660;1251;60467;-68
2023/07/14 09:52:14;;;;;;;9.00;8.10;;;;;;;25.56;63.41;99668.44;105717;1257;65384;-67
2023/07/14 09:54:57;;;;;;;9.10;8.30;;;;;;;25.62;63.64;99670.04;105644;1259;60396;-68
2023/07/14 09:57:27;;;;;;;8.80;8.00;;;;;;;25.70;63.73;99680.09;105590;1251;64047;-69
2023/07/14 10:00:19;;;;;;;8.70;7.90;;;;;;;25.79;63.56;99676.49;105620;1251;60428;-67
2023/07/14 10:03:11;;;;;;;9.10;8.20;;;;;;;25.81;63.33;99677.86;105673;1253;60504;-67
2023/07/14 10:05:54;;;;;;;10.20;8.10;;;;;;;25.86;63.15;99682.94;105876;1251;63775;-67
2023/07/14 10:08:31;;;;;;;8.90;8.00;;;;;;;25.89;62.93;99686.96;105630;1251;60537;-67
2023/07/14 10:11:00;;;;;;;9.20;8.30;;;;;;;25.88;62.82;99688.88;105742;1256;64088;-66
2023/07/14 10:13:27;;;;;;;8.40;7.60;;;;;;;25.87;62.78;99688.73;105638;1256;60524;-67
2023/07/14 10:16:15;;;;;;;9.20;8.30;;;;;;;25.88;62.83;99692.01;105703;1251;60512;-67
2023/07/14 10:18:53;;;;;;;9.00;8.10;;;;;;;25.94;63.14;99693.88;105662;1251;65242;-67
2023/07/14 10:21:25;;;;;;;8.50;7.50;;;;;;;26.04;63.18;99693.55;105618;1259;60514;-67
2023/07/14 10:23:56;;;;;;;7.80;7.10;;;;;;;26.12;62.89;99693.97;105690;1257;63911;-67
2023/07/14 10:26:26;;;;;;;8.20;7.40;;;;;;;26.19;62.77;99690.27;105677;1253;60485;-68
2023/07/14 10:28:53;;;;;;;7.40;6.70;;;;;;;26.29;62.71;99687.70;105586;1251;60520;-68
2023/07/14 10:31:24;;;;;;;7.60;6.90;;;;;;;26.43;62.95;99685.79;105540;1257;65215;-69
2023/07/14 10:33:54;;;;;;;7.10;6.50;;;;;;;26.60;62.46;99676.61;105301;1251;60517;-66
2023/07/14 10:36:34;;;;;;;7.00;6.30;;;;;;;26.76;62.09;99671.75;105922;1251;65522;-67
2023/07/14 10:39:17;;;;;;;6.90;6.30;;;;;;;26.97;61.88;99669.02;105683;1251;60874;-66
2023/07/14 10:41:47;;;;;;;6.90;6.30;;;;;;;27.24;61.57;99662.75;105740;1251;60454;-67
2023/07/14 10:44:30;;;;;;;6.50;5.90;;;;;;;27.55;61.10;99661.96;105989;1251;63821;-68
2023/07/14 10:47:02;;;;;;;6.80;6.10;;;;;;;27.85;60.52;99662.59;105677;1254;60814;-67
2023/07/14 10:49:43;;;;;;;6.70;6.00;;;;;;;28.07;59.63;99654.66;105878;1251;63883;-71
2023/07/14 10:52:14;;;;;;;6.50;6.00;;;;;;;28.17;58.69;99652.98;105767;1254;60562;-68
2023/07/14 10:55:03;;;;;;;6.10;5.60;;;;;;;28.21;58.06;99653.36;105614;1253;60547;-68
2023/07/14 10:57:48;;;;;;;7.50;6.10;;;;;;;28.28;58.11;99656.71;105612;1257;64975;-68
2023/07/14 11:00:29;;;;;;;6.20;5.70;;;;;;;28.28;57.20;99657.10;105546;1256;60599;-66
2023/07/14 11:03:27;;;;;;;6.50;6.00;;;;;;;28.18;56.52;99662.77;105341;1254;64086;-67
2023/07/14 11:06:00;;;;;;;6.50;5.90;;;;;;;28.03;56.20;99664.13;105360;1253;60307;-68
2023/07/14 11:08:28;;;;;;;6.90;6.10;;;;;;;27.95;56.47;99668.05;105661;1258;60381;-70
2023/07/14 11:10:59;;;;;;;7.00;6.40;;;;;;;27.99;56.82;99663.58;105761;1257;65178;-66
2023/07/14 11:13:43;;;;;;;6.90;6.30;;;;;;;28.09;57.09;99656.05;105657;1251;60513;-67
2023/07/14 11:16:32;;;;;;;8.60;6.60;;;;;;;28.33;57.45;99656.02;105556;1253;64198;-67
2023/07/14 11:19:08;;;;;;;6.90;6.20;;;;;;;28.59;55.97;99649.20;105562;1253;60358;-67
2023/07/14 11:22:01;;;;;;;22.90;7.70;;;;;;;28.83;55.77;99649.65;105713;1253;60470;-67
2023/07/14 11:25:21;;;;;;;8.70;6.40;;;;;;;29.10;54.95;99656.58;105669;1251;65235;-67
2023/07/14 11:27:52;;;;;;;10.20;6.30;;;;;;;29.32;54.16;99657.55;105762;1251;60526;-67
2023/07/14 11:30:24;;;;;;;8.70;6.40;;;;;;;29.53;54.17;99663.85;105806;1253;64092;-67
2023/07/14 11:33:05;;;;;;;13.00;6.20;;;;;;;29.80;53.77;99668.36;105470;1260;60563;-67
2023/07/14 11:35:39;;;;;;;7.00;6.30;;;;;;;30.08;52.91;99669.52;105859;1251;60691;-67
2023/07/14 11:38:33;;;;;;;8.70;7.00;;;;;;;30.19;52.77;99665.53;105601;1251;65312;-69
2023/07/14 11:41:01;;;;;;;9.30;6.60;;;;;;;30.29;52.25;99669.33;105577;1253;60530;-67
2023/07/14 11:43:31;;;;;;;7.90;7.00;;;;;;;30.27;50.30;99669.26;105544;1258;63821;-67